createdAt,value
2022-09-11T00:04:11.880Z,17.05
2022-09-11T00:24:11.674Z,17.05
2022-09-11T00:44:11.705Z,17.04
2022-09-11T01:04:11.689Z,17.04
2022-09-11T01:44:11.582Z,17.04
2022-09-11T02:04:11.556Z,17.03
2022-09-11T02:24:11.534Z,17.02
2022-09-11T02:44:11.500Z,17
2022-09-11T03:04:11.515Z,16.98
2022-09-11T03:24:11.456Z,16.96
2022-09-11T03:44:11.431Z,16.94
2022-09-11T04:04:11.406Z,16.94
2022-09-11T04:24:11.385Z,16.93
2022-09-11T04:44:11.352Z,16.92
2022-09-11T05:04:11.349Z,16.89
2022-09-11T05:24:11.298Z,16.86
2022-09-11T05:44:11.264Z,16.84
2022-09-11T06:04:11.243Z,16.84
2022-09-11T06:24:11.211Z,16.83
2022-09-11T06:44:11.193Z,16.83
2022-09-11T07:04:11.167Z,16.82
2022-09-11T07:24:11.167Z,16.8
2022-09-11T07:44:11.126Z,16.78
2022-09-11T08:04:11.087Z,16.76
2022-09-11T08:24:11.045Z,16.75
2022-09-11T08:44:11.027Z,16.74
2022-09-11T09:04:10.725Z,16.74
2022-09-11T09:24:10.996Z,16.73
2022-09-11T09:44:10.938Z,16.73
2022-09-11T10:04:10.901Z,16.73
2022-09-11T10:24:10.919Z,16.73
2022-09-11T10:44:10.905Z,16.72
2022-09-11T11:04:12.356Z,16.72
2022-09-11T11:24:10.786Z,16.72
2022-09-11T11:44:10.476Z,16.72
2022-09-11T12:04:10.712Z,16.72
2022-09-11T12:24:10.678Z,16.72
2022-09-11T12:44:10.654Z,16.73
2022-09-11T13:04:10.360Z,16.73
2022-09-11T13:24:10.584Z,16.73
2022-09-11T13:44:10.282Z,16.73
2022-09-11T14:04:10.523Z,16.73
2022-09-11T14:24:10.511Z,16.74
2022-09-11T14:44:10.459Z,16.75
2022-09-11T15:04:10.151Z,16.77
2022-09-11T16:04:10.339Z,16.84
2022-09-11T16:24:10.019Z,16.84
2022-09-11T16:44:10.278Z,16.87
2022-09-11T17:04:10.221Z,16.91
2022-09-11T17:24:10.367Z,16.93
2022-09-11T17:44:10.149Z,16.94
2022-09-11T18:04:10.128Z,16.97
2022-09-11T18:24:10.129Z,17.01
2022-09-11T18:44:10.112Z,17.03
2022-09-11T19:04:10.078Z,17.04
2022-09-11T19:24:10.019Z,17.05
2022-09-11T19:44:09.991Z,17.06
2022-09-11T20:04:10.014Z,17.08
2022-09-11T20:24:09.960Z,17.09
2022-09-11T20:44:09.917Z,17.11
2022-09-11T21:04:09.898Z,17.11
2022-09-11T21:24:09.837Z,17.11
2022-09-11T21:44:09.810Z,17.11
2022-09-11T22:04:09.780Z,17.11
2022-09-11T22:24:09.844Z,17.1
2022-09-11T22:44:09.766Z,17.09
2022-09-11T23:04:09.477Z,17.07
2022-09-11T23:24:09.725Z,17.06
2022-09-11T23:44:09.705Z,17.04
